Kiester, Minnesota
Current Conditions -  °F | °C
As of 6:01 PM on Thursday 27 Nov 2014 (Local Time) from KAEL Reporting Station
Clear Clear  
Wind Chill:   Ceiling: Unl
Heat Index:   Visibility: 10mi
Dew Point: -4°   Wind: 3mph
Humidity: 78%   Direction: 130°SE
Pressure: 30.36"   Gusts: NA
Location:  43.54°N, 93.71°W
Report Text: KAEL 280001Z AUTO 13003KT 10SM CLR M17/M20 A3036 RMK AO2
Loading
Personal Weather Stations






























Interactive Weather Map New forecast layout! Learn more

10-Day Weather Forecast

Advertisements
Track Severe Weather on mobile